Time;durP1;ratioP1;P1;durP2;ratioP2;P2;SDS_P1;SDS_P2;PMS_P1;PMS_P2;Temp;Humidity;BMP_temperature;BMP_pressure;BME280_temperature;BME280_humidity;BME280_pressure;Samples;Min_cycle;Max_cycle;Signal;HPM_P1;HPM_P2
2024/01/01 00:01:19;;;;;;;28.10;18.40;;;8.30;99.90;;;;;;5007898;28;20041;-61
2024/01/01 00:03:44;;;;;;;33.30;21.47;;;8.30;99.90;;;;;;5006289;28;20114;-60
2024/01/01 00:06:10;;;;;;;34.57;24.53;;;8.30;99.90;;;;;;5005044;28;20038;-60
2024/01/01 00:08:35;;;;;;;38.07;25.07;;;8.40;99.90;;;;;;5002463;28;20061;-61
2024/01/01 00:11:01;;;;;;;35.13;24.30;;;8.40;99.90;;;;;;5006636;28;20125;-61
2024/01/01 00:13:26;;;;;;;37.67;25.50;;;8.40;99.90;;;;;;5000961;28;20044;-62
2024/01/01 00:15:52;;;;;;;37.97;26.87;;;8.40;99.90;;;;;;5006751;28;20030;-61
2024/01/01 00:18:18;;;;;;;39.03;24.87;;;8.40;99.90;;;;;;5007131;28;20088;-61
2024/01/01 00:20:44;;;;;;;37.72;25.60;;;8.40;99.90;;;;;;5011172;28;20653;-61
2024/01/01 00:23:10;;;;;;;38.08;23.30;;;8.40;99.90;;;;;;5010022;28;20045;-63
2024/01/01 00:25:36;;;;;;;32.03;20.70;;;8.40;99.90;;;;;;5002688;28;20045;-63
2024/01/01 00:28:06;;;;;;;30.35;20.05;;;8.40;99.90;;;;;;5007450;28;20071;-63
2024/01/01 00:30:32;;;;;;;39.47;22.45;;;8.50;99.90;;;;;;5006672;28;20409;-63
2024/01/01 00:32:58;;;;;;;28.58;18.98;;;8.50;99.90;;;;;;5007391;28;20034;-62
2024/01/01 00:35:24;;;;;;;30.65;18.30;;;8.50;99.90;;;;;;5006805;28;20628;-63
2024/01/01 00:37:49;;;;;;;34.72;17.95;;;8.40;99.90;;;;;;5006874;28;20509;-63
2024/01/01 00:40:15;;;;;;;30.93;15.47;;;8.50;99.90;;;;;;5006454;28;20115;-63
2024/01/01 00:42:42;;;;;;;27.65;17.35;;;8.40;99.90;;;;;;5032710;28;20452;-62
2024/01/01 00:45:09;;;;;;;23.27;15.90;;;8.40;99.90;;;;;;5006699;28;20049;-63
2024/01/01 00:47:35;;;;;;;23.80;14.20;;;8.50;99.90;;;;;;5006092;28;20037;-62
2024/01/01 00:50:01;;;;;;;27.00;15.77;;;8.50;99.90;;;;;;5037425;28;20030;-63
2024/01/01 00:52:26;;;;;;;23.67;15.05;;;8.50;99.90;;;;;;5012531;28;20580;-63
2024/01/01 00:54:52;;;;;;;24.60;15.70;;;8.50;99.90;;;;;;5014354;28;20034;-63
2024/01/01 00:57:18;;;;;;;29.25;16.35;;;8.50;99.90;;;;;;5013419;28;20042;-64
2024/01/01 00:59:44;;;;;;;33.00;18.35;;;8.50;99.90;;;;;;5009650;28;20034;-62
2024/01/01 01:02:09;;;;;;;30.50;16.75;;;8.50;99.90;;;;;;5004873;28;20061;-62
2024/01/01 01:04:35;;;;;;;32.78;17.95;;;8.50;99.90;;;;;;5005491;28;20045;-63
2024/01/01 01:07:02;;;;;;;34.63;18.27;;;8.40;99.90;;;;;;5005840;28;20037;-61
2024/01/01 01:09:28;;;;;;;33.80;19.58;;;8.40;99.90;;;;;;5005992;28;20170;-61
2024/01/01 01:11:54;;;;;;;32.78;18.13;;;8.40;99.90;;;;;;5005586;28;20259;-61
2024/01/01 01:14:19;;;;;;;30.27;16.70;;;8.40;99.90;;;;;;5005651;28;20048;-61
2024/01/01 01:16:45;;;;;;;32.37;17.97;;;8.50;99.90;;;;;;5004607;28;20257;-61
2024/01/01 01:19:11;;;;;;;29.95;17.75;;;8.40;99.90;;;;;;5006178;28;20281;-60
2024/01/01 01:21:37;;;;;;;29.88;17.40;;;8.40;99.90;;;;;;5004891;28;20494;-61
2024/01/01 01:24:04;;;;;;;27.83;15.82;;;8.40;99.90;;;;;;5005568;28;20128;-61
2024/01/01 01:26:29;;;;;;;;;;;8.40;99.90;;;;;;5000016;28;20100;-61
2024/01/01 01:28:56;;;;;;;31.05;15.43;;;8.40;99.90;;;;;;5005988;28;19921;-60
2024/01/01 01:31:22;;;;;;;28.38;14.88;;;8.50;99.90;;;;;;5006503;28;20112;-61
2024/01/01 01:33:48;;;;;;;;;;;8.50;99.90;;;;;;5004641;28;20053;-61
2024/01/01 01:36:14;;;;;;;27.55;14.38;;;8.50;99.90;;;;;;5005750;28;20341;-61
2024/01/01 01:38:40;;;;;;;23.40;13.53;;;8.50;99.90;;;;;;5009106;28;20042;-60
2024/01/01 01:41:05;;;;;;;25.75;14.40;;;8.50;99.90;;;;;;5004827;28;20030;-60
2024/01/01 01:43:31;;;;;;;24.35;13.73;;;8.50;99.90;;;;;;5008694;28;20088;-60
2024/01/01 01:45:58;;;;;;;27.93;15.70;;;8.40;99.90;;;;;;5000961;28;20495;-61
2024/01/01 01:48:24;;;;;;;25.25;14.00;;;8.40;99.90;;;;;;5005669;28;20042;-61
2024/01/01 01:50:51;;;;;;;24.15;13.13;;;8.40;99.90;;;;;;5009370;28;20534;-61
2024/01/01 01:53:23;;;;;;;22.05;13.48;;;8.40;99.90;;;;;;5008366;28;20046;-61
2024/01/01 01:55:51;;;;;;;27.48;14.88;;;8.40;99.90;;;;;;5005113;28;20045;-61
2024/01/01 01:58:17;;;;;;;28.20;15.70;;;8.40;99.90;;;;;;5009578;28;20046;-61
2024/01/01 02:00:45;;;;;;;35.08;17.08;;;8.40;99.90;;;;;;5008487;28;20073;-61
2024/01/01 02:03:11;;;;;;;27.60;15.75;;;8.40;99.90;;;;;;5009217;28;20556;-62
2024/01/01 02:05:38;;;;;;;27.33;15.73;;;8.30;99.90;;;;;;5009733;28;20049;-61
2024/01/01 02:08:05;;;;;;;27.52;16.45;;;8.40;99.90;;;;;;5009373;28;20050;-62
2024/01/01 02:10:30;;;;;;;29.27;17.35;;;8.40;99.90;;;;;;5041055;28;20050;-62
2024/01/01 02:12:56;;;;;;;26.63;15.07;;;8.40;99.90;;;;;;5009373;28;20041;-62
2024/01/01 02:15:22;;;;;;;29.73;13.97;;;8.40;99.90;;;;;;5009699;28;20038;-61
2024/01/01 02:17:48;;;;;;;25.93;13.63;;;8.30;99.90;;;;;;5008617;28;20406;-61
2024/01/01 02:20:14;;;;;;;19.70;12.98;;;8.40;99.90;;;;;;5008064;28;20258;-61
2024/01/01 02:22:40;;;;;;;21.55;13.27;;;8.30;99.90;;;;;;5005652;28;20555;-61
2024/01/01 02:25:08;;;;;;;18.17;11.90;;;8.30;99.90;;;;;;5008862;28;20405;-61
2024/01/01 02:27:35;;;;;;;25.25;12.95;;;8.30;99.90;;;;;;5039351;28;20121;-61
2024/01/01 02:30:01;;;;;;;27.77;12.57;;;8.30;99.90;;;;;;5008163;28;20050;-61
2024/01/01 02:32:26;;;;;;;20.20;12.57;;;8.30;99.90;;;;;;5004418;28;20052;-60
2024/01/01 02:34:52;;;;;;;20.73;13.63;;;8.30;99.90;;;;;;5003856;28;20303;-61
2024/01/01 02:37:17;;;;;;;21.90;12.93;;;8.30;99.90;;;;;;5007277;28;20073;-61
2024/01/01 02:39:43;;;;;;;19.07;8.63;;;8.30;99.90;;;;;;5006591;28;20037;-62
2024/01/01 02:42:08;;;;;;;17.03;6.67;;;8.20;99.90;;;;;;5033328;28;20037;-62
2024/01/01 02:44:34;;;;;;;9.10;3.80;;;8.30;99.90;;;;;;5009163;28;20654;-61
2024/01/01 02:47:00;;;;;;;5.10;3.40;;;8.30;99.90;;;;;;5006060;28;20041;-62
2024/01/01 02:49:25;;;;;;;9.73;2.97;;;8.30;99.90;;;;;;4990426;28;20487;-60
2024/01/01 02:51:51;;;;;;;5.20;2.57;;;8.30;99.90;;;;;;5003436;28;20045;-61
2024/01/01 02:54:16;;;;;;;9.53;3.27;;;8.30;99.90;;;;;;5008644;28;20053;-60
2024/01/01 02:56:42;;;;;;;8.07;3.63;;;8.20;99.90;;;;;;5008789;28;20026;-63
2024/01/01 02:59:08;;;;;;;6.70;3.43;;;8.20;99.90;;;;;;5007374;28;20040;-63
2024/01/01 03:01:33;;;;;;;9.75;3.78;;;8.20;99.90;;;;;;5007838;28;20045;-63
2024/01/01 03:03:59;;;;;;;6.60;3.77;;;8.20;99.90;;;;;;5008368;28;20473;-63
2024/01/01 03:06:25;;;;;;;7.43;2.53;;;8.20;99.90;;;;;;5008963;28;20041;-63
2024/01/01 03:08:50;;;;;;;4.70;2.03;;;8.10;99.90;;;;;;5006470;28;20276;-63
2024/01/01 03:11:16;;;;;;;4.10;1.17;;;8.10;99.90;;;;;;5008357;28;20042;-62
2024/01/01 03:13:42;;;;;;;3.67;1.30;;;8.10;99.90;;;;;;5007908;28;20034;-63
2024/01/01 03:16:08;;;;;;;4.03;1.07;;;8.00;99.90;;;;;;5006608;28;20042;-63
2024/01/01 03:18:34;;;;;;;;;;;8.00;99.90;;;;;;5008722;28;20046;-63
2024/01/01 03:20:59;;;;;;;7.25;1.75;;;7.90;99.90;;;;;;5008752;28;20417;-63
2024/01/01 03:23:25;;;;;;;5.43;2.13;;;7.90;99.90;;;;;;5008671;28;20490;-64
2024/01/01 03:25:51;;;;;;;8.13;2.03;;;7.90;99.90;;;;;;5008696;28;20072;-63
2024/01/01 03:28:16;;;;;;;5.00;1.58;;;7.90;99.90;;;;;;5008939;28;20041;-64
2024/01/01 03:30:43;;;;;;;7.10;1.30;;;7.90;99.90;;;;;;5006160;28;20184;-63
2024/01/01 03:33:09;;;;;;;8.57;1.65;;;7.80;99.90;;;;;;5018408;28;20041;-62
2024/01/01 03:35:35;;;;;;;6.23;1.60;;;7.80;99.90;;;;;;5014215;28;20525;-63
2024/01/01 03:38:03;;;;;;;8.67;1.93;;;7.70;99.90;;;;;;5013064;28;20030;-63
2024/01/01 03:40:30;;;;;;;9.57;1.88;;;7.70;99.90;;;;;;5010566;28;20797;-64
2024/01/01 03:42:56;;;;;;;2.95;1.20;;;7.70;99.90;;;;;;5037204;28;20046;-63
2024/01/01 03:45:21;;;;;;;7.57;2.72;;;7.60;99.90;;;;;;5008610;28;20041;-62
2024/01/01 03:47:47;;;;;;;6.47;1.77;;;7.70;99.90;;;;;;5008260;28;20092;-63
2024/01/01 03:50:14;;;;;;;5.30;1.60;;;7.70;99.90;;;;;;5007773;28;20034;-62
2024/01/01 03:52:40;;;;;;;7.03;2.20;;;7.60;99.90;;;;;;5002628;28;20288;-63
2024/01/01 03:55:06;;;;;;;6.37;2.17;;;7.60;99.90;;;;;;5023351;28;20096;-63
2024/01/01 03:57:33;;;;;;;7.45;2.05;;;7.60;99.90;;;;;;5008199;28;20076;-63
2024/01/01 03:59:59;;;;;;;6.13;1.75;;;7.60;99.90;;;;;;5009196;28;20034;-63
2024/01/01 04:02:24;;;;;;;6.72;1.52;;;7.60;99.90;;;;;;5043617;28;20053;-63
2024/01/01 04:04:50;;;;;;;4.60;1.60;;;7.60;99.90;;;;;;5011918;28;20037;-63
2024/01/01 04:07:16;;;;;;;7.50;2.35;;;7.60;99.90;;;;;;5010943;28;20453;-63
2024/01/01 04:09:43;;;;;;;3.78;1.42;;;7.60;99.90;;;;;;5011508;28;20049;-62
2024/01/01 04:12:08;;;;;;;3.47;1.50;;;7.50;99.90;;;;;;5011164;28;20081;-63
2024/01/01 04:14:34;;;;;;;4.90;0.95;;;7.50;99.90;;;;;;5011285;28;20088;-62
2024/01/01 04:16:59;;;;;;;4.90;1.73;;;7.50;99.90;;;;;;5043521;28;20088;-62
2024/01/01 04:19:25;;;;;;;4.83;1.60;;;7.50;99.90;;;;;;5011028;28;20062;-62
2024/01/01 04:21:51;;;;;;;5.90;1.20;;;7.50;99.90;;;;;;5011233;28;20034;-62
2024/01/01 04:24:16;;;;;;;5.53;1.30;;;7.50;99.90;;;;;;5009403;28;21031;-62
2024/01/01 04:26:42;;;;;;;4.00;1.03;;;7.50;99.90;;;;;;5011153;28;20038;-61
2024/01/01 04:29:07;;;;;;;12.07;1.60;;;7.40;99.90;;;;;;5010438;28;20046;-62
2024/01/01 04:31:33;;;;;;;7.30;1.27;;;7.40;99.90;;;;;;5011446;28;20533;-62
2024/01/01 04:33:59;;;;;;;6.17;1.33;;;7.40;99.90;;;;;;5010835;28;20034;-62
2024/01/01 04:36:24;;;;;;;8.17;1.67;;;7.30;99.90;;;;;;5010926;28;20045;-62
2024/01/01 04:38:50;;;;;;;7.70;1.70;;;7.30;99.90;;;;;;5009584;28;20116;-62
2024/01/01 04:41:16;;;;;;;9.43;2.38;;;7.30;99.90;;;;;;5034268;28;20065;-62
2024/01/01 04:43:41;;;;;;;6.37;1.83;;;7.30;99.90;;;;;;5011118;28;20268;-62
2024/01/01 04:46:10;;;;;;;4.13;1.13;;;7.40;99.90;;;;;;5010413;28;20125;-63
2024/01/01 04:48:36;;;;;;;7.13;1.30;;;7.40;99.90;;;;;;5010237;28;20038;-62
2024/01/01 04:51:01;;;;;;;5.17;1.10;;;7.40;99.90;;;;;;5039257;28;20045;-62
2024/01/01 04:53:27;;;;;;;12.37;2.07;;;7.40;99.90;;;;;;5005424;28;20042;-62
2024/01/01 04:55:52;;;;;;;7.67;1.80;;;7.40;99.90;;;;;;5009947;28;20330;-62
2024/01/01 04:58:19;;;;;;;9.90;1.70;;;7.50;99.90;;;;;;5010039;28;20034;-62
2024/01/01 05:00:45;;;;;;;10.60;2.35;;;7.50;99.90;;;;;;5010455;28;20029;-62
2024/01/01 05:03:11;;;;;;;9.40;2.00;;;7.50;99.90;;;;;;5033644;28;20041;-62
2024/01/01 05:05:37;;;;;;;11.13;1.50;;;7.50;99.90;;;;;;5010380;28;20052;-62
2024/01/01 05:08:02;;;;;;;9.37;1.53;;;7.50;99.90;;;;;;5009651;28;21054;-62
2024/01/01 05:10:28;;;;;;;8.73;1.60;;;7.50;99.90;;;;;;5008726;28;20370;-62
2024/01/01 05:12:53;;;;;;;12.27;2.00;;;7.50;99.90;;;;;;5010246;28;20044;-63
2024/01/01 05:15:19;;;;;;;7.03;2.20;;;7.50;99.90;;;;;;5009928;28;20388;-63
2024/01/01 05:17:45;;;;;;;13.93;2.23;;;7.50;99.90;;;;;;5009777;28;20038;-62
2024/01/01 05:20:11;;;;;;;7.57;1.90;;;7.40;99.90;;;;;;5008792;28;20037;-62
2024/01/01 05:22:37;;;;;;;12.95;2.70;;;7.40;99.90;;;;;;5010346;28;20066;-63
2024/01/01 05:25:03;;;;;;;10.32;1.38;;;7.40;99.90;;;;;;5009811;28;20879;-62
2024/01/01 05:27:28;;;;;;;10.48;1.65;;;7.40;99.90;;;;;;5009381;28;20061;-63
2024/01/01 05:29:54;;;;;;;13.97;2.77;;;7.40;99.90;;;;;;5009358;28;20483;-62
2024/01/01 05:32:20;;;;;;;11.05;2.25;;;7.30;99.90;;;;;;5010587;28;20490;-62
2024/01/01 05:34:46;;;;;;;7.63;1.10;;;7.40;99.90;;;;;;5009696;28;20042;-62
2024/01/01 05:37:12;;;;;;;;;;;7.30;99.90;;;;;;5010188;28;20708;-62
2024/01/01 05:39:38;;;;;;;11.50;2.28;;;7.30;99.90;;;;;;5009029;28;19917;-62
2024/01/01 05:42:04;;;;;;;10.55;2.28;;;7.30;99.90;;;;;;5012902;28;20104;-62
2024/01/01 05:44:30;;;;;;;8.13;2.28;;;7.30;99.90;;;;;;5013938;28;20037;-62
2024/01/01 05:46:55;;;;;;;9.23;2.30;;;7.30;99.90;;;;;;5009216;28;20084;-62
2024/01/01 05:49:23;;;;;;;24.27;2.38;;;7.30;99.90;;;;;;5009560;28;20128;-62
2024/01/01 05:51:49;;;;;;;15.02;2.10;;;7.30;99.90;;;;;;5006985;28;20425;-62
2024/01/01 05:54:14;;;;;;;10.68;2.42;;;7.30;99.90;;;;;;5003810;28;20042;-62
2024/01/01 05:56:40;;;;;;;12.13;2.30;;;7.30;99.90;;;;;;5009464;28;20060;-62
2024/01/01 05:59:06;;;;;;;12.18;2.20;;;7.30;99.90;;;;;;5009074;28;20107;-62
2024/01/01 06:01:32;;;;;;;11.68;2.13;;;7.30;99.90;;;;;;5009323;28;20029;-61
2024/01/01 06:03:57;;;;;;;12.50;2.87;;;7.30;99.90;;;;;;5009537;28;20080;-62
2024/01/01 06:06:26;;;;;;;9.27;1.87;;;7.30;99.90;;;;;;5009269;28;20042;-61
2024/01/01 06:08:52;;;;;;;11.55;1.90;;;7.30;99.90;;;;;;5008853;28;20030;-62
2024/01/01 06:11:18;;;;;;;10.45;2.42;;;7.30;99.90;;;;;;5038384;28;20124;-62
2024/01/01 06:13:44;;;;;;;10.70;2.23;;;7.30;99.90;;;;;;5007725;28;20164;-62
2024/01/01 06:16:11;;;;;;;9.50;2.08;;;7.30;99.90;;;;;;5007484;28;20124;-62
2024/01/01 06:18:36;;;;;;;11.55;2.28;;;7.30;99.90;;;;;;5008826;28;20042;-63
2024/01/01 06:21:02;;;;;;;13.37;1.90;;;7.30;99.90;;;;;;5008921;28;20383;-62
2024/01/01 06:23:28;;;;;;;9.93;1.77;;;7.40;99.90;;;;;;5007524;28;20060;-62
2024/01/01 06:25:54;;;;;;;9.67;1.90;;;7.40;99.90;;;;;;5009086;28;20491;-62
2024/01/01 06:28:19;;;;;;;9.03;2.13;;;7.40;99.90;;;;;;5008777;28;20041;-62
2024/01/01 06:30:45;;;;;;;14.57;1.87;;;7.40;99.90;;;;;;5009035;28;20041;-62
2024/01/01 06:33:11;;;;;;;12.73;1.90;;;7.40;99.90;;;;;;5007818;28;20049;-62
2024/01/01 06:35:37;;;;;;;11.25;1.88;;;7.40;99.90;;;;;;5009463;28;20054;-63
2024/01/01 06:38:03;;;;;;;10.00;1.77;;;7.40;99.90;;;;;;5007780;28;20038;-62
2024/01/01 06:40:28;;;;;;;8.75;2.30;;;7.40;99.90;;;;;;5007381;28;20045;-62
2024/01/01 06:42:54;;;;;;;6.77;2.13;;;7.30;99.90;;;;;;5008085;28;20494;-62
2024/01/01 06:45:20;;;;;;;12.90;1.92;;;7.40;99.90;;;;;;5008632;28;20708;-63
2024/01/01 06:47:46;;;;;;;9.65;1.98;;;7.30;99.90;;;;;;5009177;28;20041;-62
2024/01/01 06:50:12;;;;;;;11.82;2.30;;;7.30;99.90;;;;;;5008478;28;20069;-63
2024/01/01 06:52:37;;;;;;;7.78;2.22;;;7.40;99.90;;;;;;5008190;28;20037;-62
2024/01/01 06:55:03;;;;;;;18.63;2.53;;;7.30;99.90;;;;;;5002404;28;20477;-62
2024/01/01 06:57:29;;;;;;;8.90;2.10;;;7.30;99.90;;;;;;5009009;28;20041;-62
2024/01/01 06:59:54;;;;;;;8.18;2.45;;;7.30;99.90;;;;;;5006909;28;20038;-62
2024/01/01 07:02:20;;;;;;;11.40;1.73;;;7.30;99.90;;;;;;5008515;28;20041;-62
2024/01/01 07:04:46;;;;;;;11.67;1.97;;;7.30;99.90;;;;;;5008410;28;20494;-62
2024/01/01 07:07:11;;;;;;;10.50;1.43;;;7.30;99.90;;;;;;5007881;28;20657;-62
2024/01/01 07:09:38;;;;;;;12.83;2.37;;;7.30;99.90;;;;;;5040282;28;20042;-62
2024/01/01 07:12:18;;;;;;;;;;;7.30;99.90;;;;;;5008856;28;20111;-62
2024/01/01 07:14:43;;;;;;;8.48;1.80;;;7.30;99.90;;;;;;5010225;28;20047;-62
2024/01/01 07:17:09;;;;;;;8.98;2.65;;;7.30;99.90;;;;;;5014742;28;20121;-63
2024/01/01 07:19:35;;;;;;;8.80;2.65;;;7.30;99.90;;;;;;5009295;28;20124;-62
2024/01/01 07:22:01;;;;;;;11.45;2.10;;;7.20;99.90;;;;;;5027296;28;20461;-62
2024/01/01 07:24:26;;;;;;;8.67;2.07;;;7.20;99.90;;;;;;5034364;28;20050;-63
2024/01/01 07:26:52;;;;;;;12.33;1.67;;;7.20;99.90;;;;;;5005971;28;20398;-62
2024/01/01 07:29:18;;;;;;;6.20;2.10;;;7.20;99.90;;;;;;5008272;28;20117;-62
2024/01/01 07:31:43;;;;;;;10.80;1.90;;;7.20;99.90;;;;;;5014041;28;20289;-62
2024/01/01 07:34:09;;;;;;;7.63;2.85;;;7.20;99.90;;;;;;5008350;28;20117;-62
2024/01/01 07:36:35;;;;;;;13.32;3.83;;;7.20;99.90;;;;;;5012309;28;20453;-63
2024/01/01 07:39:00;;;;;;;11.87;2.23;;;7.20;99.90;;;;;;5011281;28;20038;-62
2024/01/01 07:41:26;;;;;;;13.57;2.77;;;7.20;99.90;;;;;;5011588;28;20034;-62
2024/01/01 07:43:52;;;;;;;10.63;1.87;;;7.20;99.90;;;;;;5011746;28;20030;-62
2024/01/01 07:46:17;;;;;;;9.57;1.87;;;7.10;99.90;;;;;;5011625;28;20065;-62
2024/01/01 07:48:43;;;;;;;11.47;2.33;;;7.20;99.90;;;;;;5010267;28;20042;-63
2024/01/01 07:51:08;;;;;;;10.00;2.23;;;7.20;99.90;;;;;;5010460;28;20111;-62
2024/01/01 07:53:34;;;;;;;10.80;2.93;;;7.10;99.90;;;;;;5011198;28;20125;-62
2024/01/01 07:56:01;;;;;;;10.70;1.80;;;7.10;99.90;;;;;;5006466;28;20117;-62
2024/01/01 07:58:30;;;;;;;8.40;1.85;;;7.20;99.90;;;;;;5036890;28;20292;-62
2024/01/01 08:00:55;;;;;;;10.57;3.08;;;7.20;99.90;;;;;;5007592;28;20034;-61
2024/01/01 08:03:21;;;;;;;23.90;3.63;;;7.20;99.90;;;;;;5012410;28;20068;-62
2024/01/01 08:05:47;;;;;;;15.20;3.15;;;7.20;99.90;;;;;;5031971;28;20042;-62
2024/01/01 08:08:13;;;;;;;12.40;2.90;;;7.20;99.90;;;;;;5006377;28;20437;-62
2024/01/01 08:10:38;;;;;;;17.83;3.10;;;7.20;99.90;;;;;;5009160;28;20044;-63
2024/01/01 08:13:04;;;;;;;8.85;2.13;;;7.20;99.90;;;;;;5012941;28;20053;-63
2024/01/01 08:15:30;;;;;;;13.10;3.43;;;7.30;99.90;;;;;;5016479;28;20056;-63
2024/01/01 08:17:55;;;;;;;14.10;2.47;;;7.30;99.90;;;;;;5017823;28;20045;-62
2024/01/01 08:20:21;;;;;;;10.23;2.53;;;7.30;99.90;;;;;;5017484;28;20049;-63
2024/01/01 08:22:47;;;;;;;11.50;2.47;;;7.30;99.90;;;;;;5011916;28;20335;-63
2024/01/01 08:25:13;;;;;;;11.90;2.38;;;7.30;99.90;;;;;;5011827;28;20288;-62
2024/01/01 08:27:39;;;;;;;7.95;2.00;;;7.30;99.90;;;;;;5016269;28;20127;-62
2024/01/01 08:30:06;;;;;;;9.40;2.77;;;7.30;99.90;;;;;;5015792;28;20065;-62
2024/01/01 08:32:33;;;;;;;11.43;2.30;;;7.30;99.90;;;;;;5011857;28;20042;-62
2024/01/01 08:34:58;;;;;;;12.60;2.45;;;7.30;99.90;;;;;;5011511;28;20050;-62
2024/01/01 08:37:24;;;;;;;10.07;1.80;;;7.30;99.90;;;;;;5012066;28;20034;-62
2024/01/01 08:39:50;;;;;;;9.70;2.53;;;7.30;99.90;;;;;;5009596;28;20052;-62
2024/01/01 08:42:15;;;;;;;9.30;2.33;;;7.30;99.90;;;;;;5038793;28;20049;-62
2024/01/01 08:44:41;;;;;;;10.07;2.40;;;7.40;99.90;;;;;;5011090;28;20502;-62
2024/01/01 08:47:06;;;;;;;8.10;2.47;;;7.40;99.90;;;;;;5007922;28;20042;-62
2024/01/01 08:49:32;;;;;;;10.00;2.80;;;7.40;99.90;;;;;;5014795;28;20041;-62
2024/01/01 08:51:58;;;;;;;8.40;2.17;;;7.40;99.90;;;;;;5009195;28;20361;-63
2024/01/01 08:54:23;;;;;;;10.53;2.30;;;7.40;99.90;;;;;;5006161;28;20525;-63
2024/01/01 08:56:49;;;;;;;17.13;3.60;;;7.40;99.90;;;;;;5003344;28;20420;-62
2024/01/01 08:59:17;;;;;;;10.93;2.33;;;7.40;99.90;;;;;;5002105;28;20463;-63
2024/01/01 09:01:44;;;;;;;9.02;1.67;;;7.40;99.90;;;;;;5005103;28;20038;-62
2024/01/01 09:04:10;;;;;;;9.98;2.63;;;7.40;99.90;;;;;;5003307;28;20092;-62
2024/01/01 09:06:35;;;;;;;8.50;2.17;;;7.40;99.90;;;;;;4999923;28;20034;-62
2024/01/01 09:09:01;;;;;;;11.70;2.00;;;7.50;99.90;;;;;;5001576;28;20026;-62
2024/01/01 09:11:26;;;;;;;11.57;2.43;;;7.50;99.90;;;;;;5002095;28;20066;-63
2024/01/01 09:13:52;;;;;;;8.10;2.67;;;7.50;99.90;;;;;;5002811;28;20039;-62
2024/01/01 09:16:18;;;;;;;11.05;2.50;;;7.40;99.90;;;;;;5004803;28;20299;-63
2024/01/01 09:18:43;;;;;;;9.63;2.50;;;7.50;99.90;;;;;;5006408;28;20360;-62
2024/01/01 09:21:14;;;;;;;11.07;1.60;;;7.70;99.90;;;;;;5007611;28;20046;-63
2024/01/01 09:23:40;;;;;;;9.65;1.95;;;7.90;99.90;;;;;;5009781;28;20061;-61
2024/01/01 09:26:05;;;;;;;11.77;2.33;;;8.10;99.90;;;;;;5004401;28;20539;-63
2024/01/01 09:28:33;;;;;;;7.13;1.90;;;8.10;99.90;;;;;;5004339;28;20045;-62
2024/01/01 09:30:59;;;;;;;9.98;2.45;;;8.10;99.90;;;;;;4999385;28;20502;-63
2024/01/01 09:33:25;;;;;;;6.28;1.70;;;8.10;99.90;;;;;;5000167;28;20034;-62
2024/01/01 09:35:52;;;;;;;9.95;1.90;;;8.30;99.90;;;;;;5008375;28;20056;-62
2024/01/01 09:38:18;;;;;;;11.02;2.03;;;8.50;99.90;;;;;;5035572;28;20049;-62
2024/01/01 09:40:44;;;;;;;10.88;1.77;;;8.60;99.90;;;;;;5010171;28;20042;-62
2024/01/01 09:43:17;;;;;;;12.52;2.42;;;8.60;99.90;;;;;;5010335;28;20088;-62
2024/01/01 09:45:46;;;;;;;11.52;2.15;;;8.40;99.90;;;;;;5009672;28;20101;-62
2024/01/01 09:48:12;;;;;;;5.00;1.63;;;8.30;99.90;;;;;;5010140;28;20108;-62
2024/01/01 09:50:37;;;;;;;9.52;2.83;;;8.10;99.90;;;;;;5010153;28;20132;-62
2024/01/01 09:53:03;;;;;;;13.15;3.13;;;8.00;99.90;;;;;;5008704;28;20052;-62
2024/01/01 09:55:30;;;;;;;12.38;2.83;;;8.00;99.90;;;;;;5010284;28;20124;-62
2024/01/01 09:57:55;;;;;;;;;;;7.90;99.90;;;;;;5010267;28;20038;-62
2024/01/01 10:00:22;;;;;;;13.35;3.38;;;7.90;99.90;;;;;;5010676;28;19928;-62
2024/01/01 10:02:48;;;;;;;8.90;2.45;;;7.80;99.90;;;;;;5010136;28;20034;-62
2024/01/01 10:05:15;;;;;;;11.45;2.47;;;7.80;99.90;;;;;;5003152;28;20560;-62
2024/01/01 10:07:41;;;;;;;12.70;3.38;;;7.80;99.90;;;;;;5007548;28;20537;-62
2024/01/01 10:10:07;;;;;;;8.07;2.78;;;7.80;99.90;;;;;;5005160;28;20069;-61
2024/01/01 10:12:33;;;;;;;;;;;7.80;99.90;;;;;;5007664;28;20397;-62
2024/01/01 10:14:59;;;;;;;16.83;3.25;;;7.80;99.90;;;;;;5018945;28;19931;-62
2024/01/01 10:17:25;;;;;;;6.72;2.70;;;7.70;99.90;;;;;;5004445;28;20129;-61
2024/01/01 10:20:01;;;;;;;12.90;2.90;;;7.70;99.90;;;;;;5003907;28;20036;-62
2024/01/01 10:22:31;;;;;;;11.02;3.30;;;7.70;99.90;;;;;;5008709;28;20033;-61
2024/01/01 10:25:11;;;;;;;11.10;3.00;;;7.60;99.90;;;;;;5008600;28;20080;-61
2024/01/01 10:27:43;;;;;;;10.55;2.72;;;7.60;99.90;;;;;;5025435;28;20053;-62
2024/01/01 10:30:09;;;;;;;5.57;2.13;;;7.60;99.90;;;;;;5006285;28;20046;-61
2024/01/01 10:32:36;;;;;;;6.85;1.67;;;7.60;99.90;;;;;;5009549;28;20057;-61
2024/01/01 10:35:02;;;;;;;;;;;7.60;99.90;;;;;;5009945;28;20038;-62
2024/01/01 10:37:29;;;;;;;5.13;1.48;;;7.60;99.90;;;;;;5009190;28;20015;-62
2024/01/01 10:39:58;;;;;;;6.63;2.03;;;7.60;99.90;;;;;;5007938;28;20528;-62
2024/01/01 10:42:30;;;;;;;7.05;1.10;;;7.60;99.90;;;;;;5010494;28;20048;-62
2024/01/01 10:44:56;;;;;;;6.53;1.45;;;7.60;99.90;;;;;;5007021;28;20041;-61
2024/01/01 10:47:23;;;;;;;7.17;1.17;;;7.60;99.90;;;;;;5007346;28;20087;-61
2024/01/01 10:49:56;;;;;;;9.63;1.63;;;7.60;99.90;;;;;;5006264;28;20426;-61
2024/01/01 10:52:53;;;;;;;4.28;1.30;;;7.60;99.90;;;;;;5005807;28;20049;-62
2024/01/01 10:55:27;;;;;;;9.68;1.92;;;7.70;99.90;;;;;;5005000;28;20057;-62
2024/01/01 10:58:18;;;;;;;11.95;2.13;;;8.30;99.90;;;;;;5007905;28;20117;-62
2024/01/01 11:01:16;;;;;;;6.60;1.65;;;8.70;99.90;;;;;;5008267;28;20033;-60
2024/01/01 11:03:48;;;;;;;4.10;1.45;;;8.80;99.90;;;;;;4933301;29;20062;-61
2024/01/01 11:06:31;;;;;;;4.43;1.35;;;8.70;99.90;;;;;;4947820;29;20047;-61
2024/01/01 11:09:17;;;;;;;5.90;2.10;;;8.60;99.90;;;;;;4948082;28;20047;-62
2024/01/01 11:11:50;;;;;;;9.48;2.25;;;8.40;99.90;;;;;;4951748;28;20096;-62
2024/01/01 11:14:25;;;;;;;8.23;1.70;;;8.30;99.90;;;;;;4949248;29;20093;-61
2024/01/01 11:16:56;;;;;;;6.00;1.85;;;8.10;99.90;;;;;;4951305;28;20090;-61
2024/01/01 11:19:38;;;;;;;14.80;2.45;;;8.10;99.90;;;;;;4970813;28;20139;-61
2024/01/01 11:22:30;;;;;;;7.15;1.70;;;8.10;99.90;;;;;;4954689;28;20109;-62
2024/01/01 11:24:59;;;;;;;12.43;2.47;;;8.20;99.90;;;;;;4964792;28;20330;-62
2024/01/01 11:27:32;;;;;;;8.70;2.15;;;8.20;99.90;;;;;;4948798;29;20507;-61
2024/01/01 11:30:07;;;;;;;8.38;1.73;;;8.30;99.90;;;;;;4950709;29;20118;-62
2024/01/01 11:32:34;;;;;;;11.05;1.73;;;8.30;99.90;;;;;;4935253;29;20051;-62
2024/01/01 11:35:20;;;;;;;4.95;1.75;;;8.50;99.90;;;;;;4950924;29;21568;-61
2024/01/01 11:37:46;;;;;;;7.65;1.60;;;9.10;99.90;;;;;;4945761;28;20054;-63
2024/01/01 11:40:12;;;;;;;4.80;1.10;;;9.70;99.90;;;;;;4980601;28;20050;-61
2024/01/01 11:42:39;;;;;;;7.82;1.15;;;9.80;99.90;;;;;;5005693;28;20406;-62
2024/01/01 11:45:14;;;;;;;4.50;1.25;;;9.90;99.90;;;;;;5008214;28;20525;-62
2024/01/01 11:47:40;;;;;;;7.47;1.15;;;9.80;99.90;;;;;;5008350;28;20048;-62
2024/01/01 11:50:07;;;;;;;5.57;1.15;;;10.00;99.90;;;;;;5010545;28;20038;-62
2024/01/01 11:52:33;;;;;;;4.70;1.20;;;10.70;99.90;;;;;;5011521;28;20052;-62
2024/01/01 11:54:59;;;;;;;6.32;1.05;;;11.90;99.90;;;;;;5011928;28;20089;-62
2024/01/01 11:57:25;;;;;;;10.30;0.88;;;13.40;99.90;;;;;;5011911;28;20041;-64
2024/01/01 11:59:50;;;;;;;3.40;0.90;;;14.30;99.90;;;;;;5001360;28;20033;-64
2024/01/01 12:02:17;;;;;;;4.55;0.70;;;14.60;99.90;;;;;;5006985;28;20042;-63
2024/01/01 12:04:49;;;;;;;4.55;0.60;;;14.70;99.90;;;;;;5006942;28;20599;-64
2024/01/01 12:07:35;;;;;;;5.03;0.95;;;14.20;99.90;;;;;;5009335;28;20457;-64
2024/01/01 12:10:03;;;;;;;3.53;0.70;;;13.30;99.90;;;;;;5010670;28;20060;-63
2024/01/01 12:12:29;;;;;;;4.68;0.88;;;12.80;99.90;;;;;;5039418;28;20049;-64
2024/01/01 12:15:10;;;;;;;5.10;0.65;;;12.90;99.90;;;;;;5009760;28;20487;-62
2024/01/01 12:17:42;;;;;;;6.03;0.95;;;12.60;99.90;;;;;;5008481;28;20140;-64
2024/01/01 12:20:09;;;;;;;8.63;1.10;;;12.20;99.90;;;;;;5003272;28;20065;-63
2024/01/01 12:22:36;;;;;;;9.48;1.10;;;11.70;99.90;;;;;;5011852;28;20121;-63
2024/01/01 12:25:01;;;;;;;;;;;11.30;99.90;;;;;;5011730;28;20434;-64
2024/01/01 12:27:27;;;;;;;2.45;0.80;;;11.60;99.90;;;;;;5034485;28;20136;-64
2024/01/01 12:29:56;;;;;;;7.57;0.55;;;13.00;99.90;;;;;;5008978;28;20056;-63
2024/01/01 12:32:25;;;;;;;5.38;0.90;;;14.50;99.90;;;;;;5011632;28;20038;-63
2024/01/01 12:34:51;;;;;;;7.57;1.00;;;15.20;99.90;;;;;;5010208;28;20436;-64
2024/01/01 12:37:17;;;;;;;;;;;15.30;99.90;;;;;;5007405;28;20033;-64
2024/01/01 12:39:43;;;;;;;5.40;0.77;;;15.70;99.90;;;;;;5010051;28;20329;-64
2024/01/01 12:42:09;;;;;;;9.43;0.73;;;15.90;99.90;;;;;;5009184;28;20046;-64
2024/01/01 12:44:36;;;;;;;4.60;0.85;;;14.90;99.90;;;;;;5014268;28;20072;-64
2024/01/01 12:47:02;;;;;;;8.60;1.05;;;14.00;99.90;;;;;;5014651;28;20041;-64
2024/01/01 12:49:33;;;;;;;5.43;0.68;;;13.10;99.90;;;;;;5016335;28;20607;-63
2024/01/01 12:51:58;;;;;;;7.43;1.23;;;12.10;99.90;;;;;;5004731;28;20034;-64